EWG78U HEGN-EDDH
Flight info
| Callsign | EWG78U |
|---|---|
| Flight time | N/A |
| Altitude | 34000 |
| Route | BOTIX1B BOTIX V608 NABED T55 GINDI W8 ALPID/N0449F350 DCT GESON/N0452F340 Q777 AZMEY/N0456F360 Q777 RASDA DCT OTHON UN128 RDS UL609 MES DCT EVIVI L863 OKANA DCT NEPOS DCT PARAK DCT MAVOR/N0453F380 DCT KATQA DCT LEGAZ DCT HDO M748 ESIKA DCT SOGMA M748 RARUP RARUP6A |
| Aircraft | A320/M-SDE3FGHIRWY/LB1 |
Departure
| Time | 2026-04-29 14:44 |
|---|---|
| Airport | Hurghada International Airport (HEGN) |
Arrival
| Time | N/A |
|---|---|
| Airport | Hamburg Helmut Schmidt Airport (EDDH) |
| Time | Latitude | Longitude | Altitude | Speed | Heading |
|---|---|---|---|---|---|
| 2026-04-29 14:14 | 27.17776 | 33.80667 | 58 ft | 0 kts | 75° |
| 2026-04-29 14:35 | 27.17771 | 33.80644 | 52 ft | 4 kts | 77° |
| 2026-04-29 14:35 | 27.17765 | 33.80614 | 53 ft | 4 kts | 81° |
| 2026-04-29 14:35 | 27.17762 | 33.80584 | 52 ft | 4 kts | 91° |
| 2026-04-29 14:35 | 27.17766 | 33.80556 | 53 ft | 4 kts | 124° |
| 2026-04-29 14:36 | 27.17777 | 33.80545 | 50 ft | 1 kts | 165° |
| 2026-04-29 14:36 | 27.17780 | 33.80544 | 50 ft | 0 kts | 165° |
| 2026-04-29 14:38 | 27.17773 | 33.80547 | 58 ft | 4 kts | 164° |
| 2026-04-29 14:38 | 27.17729 | 33.80560 | 57 ft | 8 kts | 165° |
| 2026-04-29 14:39 | 27.17661 | 33.80581 | 52 ft | 11 kts | 165° |
| 2026-04-29 14:39 | 27.17577 | 33.80606 | 57 ft | 13 kts | 166° |
| 2026-04-29 14:39 | 27.17492 | 33.80600 | 52 ft | 14 kts | 226° |
| 2026-04-29 14:39 | 27.17467 | 33.80498 | 55 ft | 13 kts | 256° |
| 2026-04-29 14:40 | 27.17435 | 33.80409 | 51 ft | 14 kts | 218° |
| 2026-04-29 14:40 | 27.17334 | 33.80425 | 51 ft | 18 kts | 165° |
| 2026-04-29 14:40 | 27.17187 | 33.80470 | 50 ft | 25 kts | 165° |
| 2026-04-29 14:40 | 27.17012 | 33.80522 | 51 ft | 27 kts | 166° |
| 2026-04-29 14:41 | 27.16825 | 33.80576 | 48 ft | 30 kts | 165° |
| 2026-04-29 14:41 | 27.16636 | 33.80632 | 48 ft | 26 kts | 165° |
| 2026-04-29 14:41 | 27.16456 | 33.80686 | 47 ft | 19 kts | 166° |
| 2026-04-29 14:41 | 27.16333 | 33.80722 | 44 ft | 18 kts | 165° |
| 2026-04-29 14:42 | 27.16214 | 33.80757 | 40 ft | 18 kts | 165° |
| 2026-04-29 14:42 | 27.16148 | 33.80729 | 39 ft | 10 kts | 255° |
| 2026-04-29 14:42 | 27.16134 | 33.80667 | 39 ft | 6 kts | 256° |
| 2026-04-29 14:42 | 27.16130 | 33.80617 | 43 ft | 8 kts | 287° |
| 2026-04-29 14:43 | 27.16179 | 33.80595 | 43 ft | 7 kts | 344° |
| 2026-04-29 14:43 | 27.16318 | 33.80554 | 43 ft | 49 kts | 345° |
| 2026-04-29 14:43 | 27.16850 | 33.80396 | 45 ft | 107 kts | 345° |
| 2026-04-29 14:43 | 27.17734 | 33.80133 | 53 ft | 154 kts | 345° |
| 2026-04-29 14:44 | 27.18850 | 33.79808 | 381 ft | 165 kts | 346° |
| 2026-04-29 14:44 | 27.19934 | 33.79448 | 1045 ft | 161 kts | 345° |
| 2026-04-29 14:44 | 27.21000 | 33.79079 | 1585 ft | 163 kts | 343° |
| 2026-04-29 14:44 | 27.22144 | 33.78731 | 1887 ft | 180 kts | 345° |
| 2026-04-29 14:45 | 27.23416 | 33.78338 | 2227 ft | 197 kts | 344° |
| 2026-04-29 14:45 | 27.24765 | 33.77900 | 2698 ft | 208 kts | 343° |
| 2026-04-29 14:45 | 27.26179 | 33.77427 | 3160 ft | 221 kts | 343° |
| 2026-04-29 14:45 | 27.27701 | 33.76918 | 3813 ft | 228 kts | 341° |
| 2026-04-29 14:46 | 27.29227 | 33.76414 | 4473 ft | 237 kts | 341° |
| 2026-04-29 14:46 | 27.30841 | 33.75900 | 5086 ft | 245 kts | 339° |
| 2026-04-29 14:46 | 27.32328 | 33.74951 | 5714 ft | 249 kts | 315° |
| 2026-04-29 14:46 | 27.33263 | 33.73314 | 6447 ft | 254 kts | 289° |
| 2026-04-29 14:47 | 27.33415 | 33.71320 | 7158 ft | 262 kts | 263° |
| 2026-04-29 14:47 | 27.32814 | 33.69341 | 7760 ft | 275 kts | 251° |
| 2026-04-29 14:47 | 27.32084 | 33.67332 | 8422 ft | 279 kts | 251° |
| 2026-04-29 14:47 | 27.31607 | 33.65980 | 8867 ft | 282 kts | 252° |
| 2026-04-29 14:48 | 27.30674 | 33.63184 | 9773 ft | 289 kts | 254° |
| 2026-04-29 14:48 | 27.29996 | 33.61022 | 10185 ft | 303 kts | 254° |
| 2026-04-29 14:48 | 27.29295 | 33.58700 | 10354 ft | 325 kts | 255° |
| 2026-04-29 14:48 | 27.28569 | 33.56249 | 10800 ft | 335 kts | 254° |
| 2026-04-29 14:49 | 27.27830 | 33.53753 | 11427 ft | 339 kts | 254° |
| 2026-04-29 14:49 | 27.27080 | 33.51218 | 12038 ft | 343 kts | 254° |
| 2026-04-29 14:49 | 27.26325 | 33.48665 | 12716 ft | 346 kts | 254° |
| 2026-04-29 14:49 | 27.25567 | 33.46094 | 13399 ft | 348 kts | 255° |
| 2026-04-29 14:50 | 27.24804 | 33.43502 | 14006 ft | 351 kts | 254° |
| 2026-04-29 14:50 | 27.24035 | 33.40891 | 14565 ft | 353 kts | 255° |
| 2026-04-29 14:50 | 27.23260 | 33.38262 | 15135 ft | 356 kts | 255° |
| 2026-04-29 14:50 | 27.22482 | 33.35617 | 15735 ft | 357 kts | 256° |
| 2026-04-29 14:51 | 27.21973 | 33.32896 | 16316 ft | 355 kts | 268° |
| 2026-04-29 14:51 | 27.21967 | 33.30141 | 16877 ft | 352 kts | 278° |
| 2026-04-29 14:51 | 27.22199 | 33.27411 | 17359 ft | 352 kts | 278° |
| 2026-04-29 14:51 | 27.22429 | 33.24667 | 17957 ft | 354 kts | 278° |
| 2026-04-29 14:52 | 27.22656 | 33.21950 | 18472 ft | 355 kts | 278° |
| 2026-04-29 14:52 | 27.22883 | 33.19181 | 18931 ft | 356 kts | 278° |
| 2026-04-29 14:52 | 27.23109 | 33.16405 | 19419 ft | 358 kts | 278° |
| 2026-04-29 14:52 | 27.23338 | 33.13618 | 19924 ft | 359 kts | 278° |
| 2026-04-29 14:53 | 27.23570 | 33.10817 | 20427 ft | 361 kts | 278° |
| 2026-04-29 14:53 | 27.23803 | 33.07994 | 20920 ft | 363 kts | 278° |
| 2026-04-29 14:53 | 27.24035 | 33.05158 | 21410 ft | 365 kts | 278° |
| 2026-04-29 14:53 | 27.24265 | 33.02308 | 21888 ft | 367 kts | 278° |
| 2026-04-29 14:54 | 27.24493 | 32.99442 | 22345 ft | 369 kts | 278° |
| 2026-04-29 14:54 | 27.24723 | 32.96560 | 22793 ft | 371 kts | 278° |
| 2026-04-29 14:54 | 27.24955 | 32.93665 | 23214 ft | 373 kts | 278° |
| 2026-04-29 14:54 | 27.25188 | 32.90751 | 23612 ft | 375 kts | 278° |
| 2026-04-29 14:55 | 27.25421 | 32.87830 | 23961 ft | 376 kts | 278° |
| 2026-04-29 14:55 | 27.25656 | 32.84899 | 24304 ft | 377 kts | 278° |
| 2026-04-29 14:55 | 27.25888 | 32.81965 | 24661 ft | 378 kts | 278° |
| 2026-04-29 14:55 | 27.26121 | 32.79018 | 24989 ft | 379 kts | 278° |
| 2026-04-29 14:56 | 27.26355 | 32.76066 | 25306 ft | 380 kts | 278° |
| 2026-04-29 14:56 | 27.26587 | 32.73101 | 25615 ft | 382 kts | 278° |
| 2026-04-29 14:56 | 27.26819 | 32.70125 | 25912 ft | 383 kts | 278° |
| 2026-04-29 14:56 | 27.27054 | 32.67139 | 26227 ft | 385 kts | 278° |
| 2026-04-29 14:57 | 27.27291 | 32.64137 | 26525 ft | 386 kts | 278° |
| 2026-04-29 14:57 | 27.27528 | 32.61128 | 26827 ft | 387 kts | 277° |
| 2026-04-29 14:57 | 27.27766 | 32.58102 | 27106 ft | 389 kts | 277° |
| 2026-04-29 14:57 | 27.28004 | 32.55069 | 27381 ft | 390 kts | 277° |
| 2026-04-29 14:58 | 27.28240 | 32.52026 | 27662 ft | 392 kts | 277° |
| 2026-04-29 14:58 | 27.28476 | 32.48966 | 27938 ft | 393 kts | 277° |
| 2026-04-29 14:58 | 27.28710 | 32.45939 | 28197 ft | 395 kts | 277° |
| 2026-04-29 14:58 | 27.28948 | 32.42859 | 28456 ft | 396 kts | 277° |
| 2026-04-29 14:59 | 27.29186 | 32.39726 | 28703 ft | 398 kts | 277° |
| 2026-04-29 14:59 | 27.29415 | 32.36660 | 28941 ft | 399 kts | 277° |
| 2026-04-29 14:59 | 27.29646 | 32.33547 | 29166 ft | 401 kts | 277° |
| 2026-04-29 14:59 | 27.30109 | 32.30465 | 29372 ft | 401 kts | 286° |
| 2026-04-29 15:00 | 27.31087 | 32.27530 | 29577 ft | 402 kts | 296° |
| 2026-04-29 15:00 | 27.32543 | 32.24839 | 29790 ft | 405 kts | 305° |
| 2026-04-29 15:00 | 27.34271 | 32.22325 | 29980 ft | 407 kts | 305° |
| 2026-04-29 15:00 | 27.36008 | 32.19800 | 30192 ft | 408 kts | 305° |
| 2026-04-29 15:01 | 27.37738 | 32.17278 | 30460 ft | 407 kts | 305° |
| 2026-04-29 15:01 | 27.39463 | 32.14756 | 30688 ft | 407 kts | 305° |
| 2026-04-29 15:01 | 27.41184 | 32.12234 | 30907 ft | 406 kts | 305° |
| 2026-04-29 15:01 | 27.42323 | 32.10565 | 31062 ft | 406 kts | 305° |
| 2026-04-29 15:02 | 27.44049 | 32.08041 | 31286 ft | 406 kts | 305° |
| 2026-04-29 15:02 | 27.45773 | 32.05523 | 31532 ft | 406 kts | 305° |
| 2026-04-29 15:02 | 27.47497 | 32.03006 | 31772 ft | 406 kts | 305° |
| 2026-04-29 15:02 | 27.49217 | 32.00492 | 32040 ft | 404 kts | 305° |
| 2026-04-29 15:03 | 27.50933 | 31.97983 | 32305 ft | 403 kts | 305° |
| 2026-04-29 15:03 | 27.52638 | 31.95480 | 32563 ft | 403 kts | 305° |
| 2026-04-29 15:03 | 27.54340 | 31.92978 | 32789 ft | 402 kts | 305° |
| 2026-04-29 15:03 | 27.56040 | 31.90478 | 33021 ft | 402 kts | 305° |
| 2026-04-29 15:04 | 27.57739 | 31.87981 | 33241 ft | 401 kts | 305° |
| 2026-04-29 15:04 | 27.59437 | 31.85486 | 33445 ft | 401 kts | 305° |
| 2026-04-29 15:04 | 27.61137 | 31.82987 | 33694 ft | 401 kts | 305° |
| 2026-04-29 15:04 | 27.62834 | 31.80494 | 33904 ft | 401 kts | 305° |
| 2026-04-29 15:05 | 27.64528 | 31.78000 | 34107 ft | 401 kts | 305° |
| 2026-04-29 15:05 | 27.66198 | 31.75540 | 34280 ft | 400 kts | 304° |
| 2026-04-29 15:05 | 27.67893 | 31.73045 | 34489 ft | 400 kts | 304° |
| 2026-04-29 15:05 | 27.69581 | 31.70558 | 34682 ft | 399 kts | 304° |
| 2026-04-29 15:06 | 27.71264 | 31.68074 | 34873 ft | 398 kts | 304° |
| 2026-04-29 15:06 | 27.72942 | 31.65591 | 35006 ft | 398 kts | 304° |
| 2026-04-29 15:06 | 27.74618 | 31.63112 | 35051 ft | 396 kts | 304° |
| 2026-04-29 15:07 | 27.77954 | 31.58179 | 35050 ft | 395 kts | 304° |
| 2026-04-29 15:07 | 27.81282 | 31.53247 | 35049 ft | 395 kts | 304° |
| 2026-04-29 15:08 | 27.84616 | 31.48309 | 35065 ft | 395 kts | 304° |
| 2026-04-29 15:08 | 27.87953 | 31.43368 | 35080 ft | 396 kts | 304° |
| 2026-04-29 15:09 | 27.91282 | 31.38418 | 35081 ft | 395 kts | 304° |
| 2026-04-29 15:09 | 27.94606 | 31.33480 | 35080 ft | 394 kts | 304° |
| 2026-04-29 15:10 | 27.97921 | 31.28550 | 35069 ft | 394 kts | 304° |
| 2026-04-29 15:10 | 28.01223 | 31.23609 | 35071 ft | 393 kts | 304° |
| 2026-04-29 15:11 | 28.04710 | 31.18843 | 35074 ft | 397 kts | 315° |
| 2026-04-29 15:11 | 28.06996 | 31.17051 | 35060 ft | 405 kts | 327° |
| 2026-04-29 15:11 | 28.09646 | 31.15891 | 35054 ft | 415 kts | 340° |
| 2026-04-29 15:11 | 28.12544 | 31.15461 | 35044 ft | 427 kts | 353° |
| 2026-04-29 15:12 | 28.15534 | 31.15705 | 35038 ft | 433 kts | 358° |
| 2026-04-29 15:12 | 28.21534 | 31.16379 | 35050 ft | 434 kts | 358° |
| 2026-04-29 15:13 | 28.27543 | 31.17062 | 35043 ft | 434 kts | 358° |
| 2026-04-29 15:13 | 28.33518 | 31.17731 | 35042 ft | 434 kts | 358° |
| 2026-04-29 15:14 | 28.39537 | 31.18398 | 35041 ft | 434 kts | 358° |
| 2026-04-29 15:14 | 28.45550 | 31.19076 | 35076 ft | 434 kts | 358° |
| 2026-04-29 15:15 | 28.51566 | 31.19758 | 35066 ft | 434 kts | 358° |
| 2026-04-29 15:15 | 28.57569 | 31.20431 | 35057 ft | 433 kts | 357° |
| 2026-04-29 15:16 | 28.63570 | 31.21103 | 35054 ft | 433 kts | 358° |
| 2026-04-29 15:16 | 28.69563 | 31.21785 | 35065 ft | 433 kts | 358° |
| 2026-04-29 15:17 | 28.75558 | 31.22488 | 35058 ft | 433 kts | 358° |
| 2026-04-29 15:17 | 28.81544 | 31.23214 | 35046 ft | 433 kts | 358° |
| 2026-04-29 15:18 | 28.87532 | 31.23947 | 35044 ft | 432 kts | 358° |
| 2026-04-29 15:18 | 28.93511 | 31.24675 | 35042 ft | 432 kts | 358° |
| 2026-04-29 15:19 | 28.99489 | 31.25392 | 35052 ft | 432 kts | 357° |
| 2026-04-29 15:19 | 29.05468 | 31.26111 | 35041 ft | 432 kts | 357° |
| 2026-04-29 15:20 | 29.11402 | 31.26835 | 35033 ft | 432 kts | 357° |
| 2026-04-29 15:20 | 29.17375 | 31.27564 | 35031 ft | 432 kts | 357° |
| 2026-04-29 15:21 | 29.23347 | 31.28292 | 35049 ft | 431 kts | 357° |
| 2026-04-29 15:21 | 29.29302 | 31.29020 | 35045 ft | 430 kts | 357° |
| 2026-04-29 15:22 | 29.35253 | 31.29748 | 35041 ft | 430 kts | 357° |
| 2026-04-29 15:22 | 29.41149 | 31.31398 | 35035 ft | 449 kts | 15° |
| 2026-04-29 15:23 | 29.46668 | 31.35016 | 35025 ft | 459 kts | 22° |
| 2026-04-29 15:23 | 29.52125 | 31.38826 | 35020 ft | 459 kts | 22° |
| 2026-04-29 15:24 | 29.57598 | 31.42622 | 35024 ft | 459 kts | 22° |
| 2026-04-29 15:24 | 29.63067 | 31.46421 | 35046 ft | 460 kts | 22° |
| 2026-04-29 15:25 | 29.68532 | 31.50226 | 35047 ft | 459 kts | 22° |
| 2026-04-29 15:25 | 29.73992 | 31.54040 | 35047 ft | 459 kts | 22° |
| 2026-04-29 15:26 | 29.79445 | 31.57865 | 35044 ft | 459 kts | 22° |
| 2026-04-29 15:26 | 29.84892 | 31.61679 | 35067 ft | 458 kts | 22° |
| 2026-04-29 15:27 | 29.90568 | 31.64597 | 35058 ft | 436 kts | 4° |
| 2026-04-29 15:27 | 29.93504 | 31.65217 | 35053 ft | 424 kts | 355° |
| 2026-04-29 15:27 | 29.96408 | 31.65304 | 35046 ft | 413 kts | 347° |
| 2026-04-29 15:28 | 30.01988 | 31.64425 | 35038 ft | 406 kts | 342° |
| 2026-04-29 15:28 | 30.07576 | 31.63429 | 35060 ft | 407 kts | 343° |
| 2026-04-29 15:29 | 30.13176 | 31.62436 | 35032 ft | 407 kts | 342° |
| 2026-04-29 15:30 | 30.24349 | 31.60424 | 35028 ft | 406 kts | 342° |
| 2026-04-29 15:30 | 30.29936 | 31.59415 | 35015 ft | 406 kts | 342° |
| 2026-04-29 15:31 | 30.35520 | 31.58416 | 35037 ft | 406 kts | 342° |
| 2026-04-29 15:31 | 30.41101 | 31.57408 | 35030 ft | 406 kts | 342° |
| 2026-04-29 15:32 | 30.46679 | 31.56398 | 35018 ft | 405 kts | 342° |
| 2026-04-29 15:32 | 30.52246 | 31.55386 | 35014 ft | 405 kts | 342° |
| 2026-04-29 15:33 | 30.57825 | 31.54376 | 35032 ft | 405 kts | 342° |
| 2026-04-29 15:33 | 30.63394 | 31.53367 | 35037 ft | 405 kts | 342° |
| 2026-04-29 15:34 | 30.68960 | 31.52355 | 35043 ft | 405 kts | 342° |
| 2026-04-29 15:34 | 30.74530 | 31.51345 | 35032 ft | 405 kts | 342° |
| 2026-04-29 15:35 | 30.80090 | 31.50331 | 35034 ft | 404 kts | 342° |
| 2026-04-29 15:35 | 30.85650 | 31.49315 | 35062 ft | 404 kts | 342° |
| 2026-04-29 15:36 | 30.91207 | 31.48305 | 35055 ft | 404 kts | 342° |
| 2026-04-29 15:36 | 30.96758 | 31.47291 | 35048 ft | 404 kts | 342° |
| 2026-04-29 15:37 | 31.02310 | 31.46269 | 35051 ft | 404 kts | 342° |
| 2026-04-29 15:37 | 31.07859 | 31.45247 | 35043 ft | 403 kts | 342° |
| 2026-04-29 15:38 | 31.13403 | 31.44229 | 35064 ft | 404 kts | 342° |
| 2026-04-29 15:38 | 31.18915 | 31.43222 | 35059 ft | 404 kts | 342° |
| 2026-04-29 15:39 | 31.24458 | 31.42201 | 35044 ft | 403 kts | 342° |
| 2026-04-29 15:39 | 31.30005 | 31.41171 | 35054 ft | 403 kts | 342° |
| 2026-04-29 15:40 | 31.35546 | 31.40146 | 35067 ft | 404 kts | 342° |
| 2026-04-29 15:40 | 31.41095 | 31.39120 | 35056 ft | 404 kts | 342° |
| 2026-04-29 15:41 | 31.46648 | 31.38086 | 35051 ft | 404 kts | 342° |
| 2026-04-29 15:41 | 31.52198 | 31.37053 | 35047 ft | 404 kts | 342° |
| 2026-04-29 15:42 | 31.57777 | 31.36094 | 35044 ft | 407 kts | 345° |
| 2026-04-29 15:42 | 31.63443 | 31.35492 | 35059 ft | 410 kts | 347° |
| 2026-04-29 15:43 | 31.69141 | 31.35005 | 35054 ft | 410 kts | 347° |
| 2026-04-29 15:43 | 31.74827 | 31.34466 | 35048 ft | 410 kts | 346° |
| 2026-04-29 15:44 | 31.80502 | 31.33871 | 35042 ft | 409 kts | 346° |
| 2026-04-29 15:44 | 31.86179 | 31.33265 | 35040 ft | 410 kts | 346° |
| 2026-04-29 15:45 | 31.91854 | 31.32661 | 35036 ft | 410 kts | 346° |
| 2026-04-29 15:45 | 31.97533 | 31.32062 | 35038 ft | 410 kts | 346° |
| 2026-04-29 15:46 | 32.03209 | 31.31462 | 35037 ft | 410 kts | 346° |
| 2026-04-29 15:46 | 32.08890 | 31.30866 | 35061 ft | 410 kts | 347° |
| 2026-04-29 15:47 | 32.14577 | 31.30255 | 35048 ft | 410 kts | 346° |
| 2026-04-29 15:47 | 32.20261 | 31.29639 | 35043 ft | 411 kts | 346° |
| 2026-04-29 15:48 | 32.25956 | 31.29026 | 35041 ft | 411 kts | 347° |
| 2026-04-29 15:48 | 32.31613 | 31.28423 | 35054 ft | 411 kts | 347° |
| 2026-04-29 15:49 | 32.37313 | 31.27809 | 35040 ft | 412 kts | 347° |
| 2026-04-29 15:49 | 32.43017 | 31.27190 | 35034 ft | 412 kts | 347° |
| 2026-04-29 15:50 | 32.48733 | 31.26575 | 35032 ft | 412 kts | 347° |
| 2026-04-29 15:50 | 32.54441 | 31.25953 | 35032 ft | 412 kts | 347° |
| 2026-04-29 15:51 | 32.59893 | 31.24368 | 35032 ft | 398 kts | 330° |
| 2026-04-29 15:51 | 32.64850 | 31.21493 | 35029 ft | 397 kts | 328° |
| 2026-04-29 15:51 | 32.67323 | 31.20054 | 35222 ft | 395 kts | 328° |
| 2026-04-29 15:52 | 32.69789 | 31.18622 | 35461 ft | 393 kts | 328° |
| 2026-04-29 15:52 | 32.72237 | 31.17196 | 35699 ft | 391 kts | 328° |
| 2026-04-29 15:52 | 32.74674 | 31.15772 | 35924 ft | 390 kts | 328° |
| 2026-04-29 15:53 | 32.79532 | 31.12922 | 36028 ft | 395 kts | 328° |
| 2026-04-29 15:53 | 32.84507 | 31.10001 | 36026 ft | 403 kts | 328° |
| 2026-04-29 15:54 | 32.88737 | 31.07520 | 36030 ft | 406 kts | 328° |
| 2026-04-29 15:54 | 32.93799 | 31.04549 | 36025 ft | 406 kts | 328° |
| 2026-04-29 15:55 | 32.98862 | 31.01564 | 36030 ft | 406 kts | 328° |
| 2026-04-29 15:55 | 33.03933 | 30.98575 | 36031 ft | 406 kts | 328° |
| 2026-04-29 15:56 | 33.08999 | 30.95582 | 36042 ft | 407 kts | 328° |
| 2026-04-29 15:56 | 33.13951 | 30.92440 | 36040 ft | 405 kts | 325° |
| 2026-04-29 15:57 | 33.18804 | 30.89027 | 36043 ft | 405 kts | 324° |
| 2026-04-29 15:57 | 33.23658 | 30.85595 | 36034 ft | 406 kts | 325° |
| 2026-04-29 15:58 | 33.28538 | 30.82210 | 36033 ft | 406 kts | 325° |
| 2026-04-29 15:58 | 33.33436 | 30.78837 | 36036 ft | 406 kts | 325° |
| 2026-04-29 15:59 | 33.38326 | 30.75456 | 36053 ft | 406 kts | 325° |
| 2026-04-29 15:59 | 33.43225 | 30.72065 | 36037 ft | 407 kts | 325° |
| 2026-04-29 16:00 | 33.48123 | 30.68656 | 36030 ft | 408 kts | 325° |
| 2026-04-29 16:00 | 33.53026 | 30.65244 | 36029 ft | 408 kts | 325° |
| 2026-04-29 16:01 | 33.57935 | 30.61823 | 36027 ft | 408 kts | 325° |
| 2026-04-29 16:01 | 33.62820 | 30.58432 | 36028 ft | 408 kts | 325° |
| 2026-04-29 16:02 | 33.67733 | 30.55013 | 36042 ft | 409 kts | 326° |
| 2026-04-29 16:02 | 33.72658 | 30.51572 | 36021 ft | 410 kts | 326° |
| 2026-04-29 16:03 | 33.77590 | 30.48121 | 36015 ft | 411 kts | 326° |
| 2026-04-29 16:03 | 33.82535 | 30.44659 | 36013 ft | 411 kts | 325° |
| 2026-04-29 16:04 | 33.87475 | 30.41186 | 36014 ft | 412 kts | 325° |
| 2026-04-29 16:04 | 33.92419 | 30.37710 | 36021 ft | 412 kts | 325° |
| 2026-04-29 16:05 | 33.97366 | 30.34230 | 36034 ft | 412 kts | 326° |
| 2026-04-29 16:05 | 34.02317 | 30.30743 | 36027 ft | 413 kts | 326° |
| 2026-04-29 16:06 | 34.07280 | 30.27246 | 36009 ft | 413 kts | 326° |
| 2026-04-29 16:06 | 34.12244 | 30.23745 | 36008 ft | 414 kts | 326° |
| 2026-04-29 16:07 | 34.17211 | 30.20232 | 36008 ft | 414 kts | 326° |
| 2026-04-29 16:07 | 34.22172 | 30.16714 | 36027 ft | 414 kts | 325° |
| 2026-04-29 16:08 | 34.27109 | 30.13207 | 36012 ft | 415 kts | 326° |
| 2026-04-29 16:08 | 34.32092 | 30.09670 | 36014 ft | 415 kts | 326° |
| 2026-04-29 16:09 | 34.37071 | 30.06122 | 36016 ft | 416 kts | 326° |
| 2026-04-29 16:09 | 34.42058 | 30.02575 | 36017 ft | 416 kts | 326° |
| 2026-04-29 16:10 | 34.46789 | 29.98624 | 36013 ft | 410 kts | 313° |
| 2026-04-29 16:10 | 34.50784 | 29.93711 | 36012 ft | 409 kts | 311° |
| 2026-04-29 16:11 | 34.54778 | 29.88781 | 36014 ft | 410 kts | 312° |
| 2026-04-29 16:11 | 34.58776 | 29.83856 | 36013 ft | 410 kts | 312° |
| 2026-04-29 16:12 | 34.62779 | 29.78915 | 36018 ft | 410 kts | 311° |
| 2026-04-29 16:12 | 34.66772 | 29.73979 | 36020 ft | 410 kts | 311° |
| 2026-04-29 16:13 | 34.70761 | 29.69036 | 36018 ft | 409 kts | 311° |
| 2026-04-29 16:13 | 34.74742 | 29.64096 | 36017 ft | 409 kts | 311° |
| 2026-04-29 16:14 | 34.78712 | 29.59153 | 36016 ft | 408 kts | 311° |
| 2026-04-29 16:14 | 34.82684 | 29.54211 | 36014 ft | 408 kts | 311° |
| 2026-04-29 16:15 | 34.86656 | 29.49265 | 36020 ft | 409 kts | 311° |
| 2026-04-29 16:15 | 34.90632 | 29.44301 | 36012 ft | 410 kts | 311° |
| 2026-04-29 16:16 | 34.94588 | 29.39351 | 35997 ft | 410 kts | 311° |
| 2026-04-29 16:16 | 34.98601 | 29.34333 | 35995 ft | 411 kts | 313° |
| 2026-04-29 16:17 | 35.03104 | 29.29982 | 35996 ft | 414 kts | 320° |
| 2026-04-29 16:17 | 35.07701 | 29.25802 | 35999 ft | 415 kts | 320° |
| 2026-04-29 16:18 | 35.12322 | 29.21581 | 36002 ft | 415 kts | 320° |
| 2026-04-29 16:18 | 35.16950 | 29.17361 | 36027 ft | 415 kts | 320° |
| 2026-04-29 16:19 | 35.21573 | 29.13131 | 36010 ft | 415 kts | 320° |
| 2026-04-29 16:19 | 35.26195 | 29.08878 | 36004 ft | 416 kts | 320° |
| 2026-04-29 16:20 | 35.30823 | 29.04632 | 36003 ft | 416 kts | 320° |
| 2026-04-29 16:20 | 35.35458 | 29.00377 | 36003 ft | 416 kts | 320° |
| 2026-04-29 16:21 | 35.40089 | 28.96116 | 36002 ft | 416 kts | 320° |
| 2026-04-29 16:21 | 35.44720 | 28.91841 | 36007 ft | 416 kts | 320° |
| 2026-04-29 16:22 | 35.49348 | 28.87563 | 36017 ft | 417 kts | 320° |
| 2026-04-29 16:22 | 35.53983 | 28.83275 | 36013 ft | 417 kts | 320° |
| 2026-04-29 16:23 | 35.58614 | 28.78983 | 36011 ft | 417 kts | 320° |
| 2026-04-29 16:23 | 35.63247 | 28.74681 | 36012 ft | 418 kts | 320° |
| 2026-04-29 16:24 | 35.67880 | 28.70373 | 36012 ft | 418 kts | 320° |
| 2026-04-29 16:24 | 35.72519 | 28.66069 | 36012 ft | 418 kts | 320° |
| 2026-04-29 16:25 | 35.77147 | 28.61754 | 36020 ft | 418 kts | 320° |
| 2026-04-29 16:25 | 35.81747 | 28.57459 | 36008 ft | 418 kts | 320° |
| 2026-04-29 16:26 | 35.86404 | 28.53096 | 36007 ft | 418 kts | 320° |
| 2026-04-29 16:26 | 35.90997 | 28.48786 | 36004 ft | 418 kts | 320° |
| 2026-04-29 16:27 | 35.95622 | 28.44450 | 35999 ft | 418 kts | 320° |
| 2026-04-29 16:27 | 36.00250 | 28.40106 | 35998 ft | 418 kts | 320° |
| 2026-04-29 16:28 | 36.04875 | 28.35764 | 36000 ft | 418 kts | 320° |
| 2026-04-29 16:28 | 36.09493 | 28.31406 | 35993 ft | 418 kts | 320° |
| 2026-04-29 16:29 | 36.14110 | 28.27039 | 35989 ft | 418 kts | 320° |
| 2026-04-29 16:29 | 36.18730 | 28.22672 | 35984 ft | 418 kts | 320° |
| 2026-04-29 16:30 | 36.23353 | 28.18307 | 35981 ft | 418 kts | 320° |
| 2026-04-29 16:30 | 36.27978 | 28.13941 | 35979 ft | 418 kts | 320° |
| 2026-04-29 16:31 | 36.32561 | 28.09583 | 35983 ft | 418 kts | 320° |
| 2026-04-29 16:31 | 36.36912 | 28.04838 | 35976 ft | 417 kts | 315° |
| 2026-04-29 16:32 | 36.41154 | 27.99938 | 35971 ft | 417 kts | 315° |
| 2026-04-29 16:32 | 36.45406 | 27.95039 | 35970 ft | 417 kts | 315° |
| 2026-04-29 16:33 | 36.51772 | 27.87683 | 35970 ft | 417 kts | 315° |
| 2026-04-29 16:33 | 36.56013 | 27.82765 | 35974 ft | 417 kts | 315° |
| 2026-04-29 16:34 | 36.60295 | 27.77900 | 35978 ft | 417 kts | 316° |
| 2026-04-29 16:34 | 36.64650 | 27.73126 | 35984 ft | 417 kts | 317° |
| 2026-04-29 16:35 | 36.69011 | 27.68358 | 35979 ft | 417 kts | 317° |
| 2026-04-29 16:35 | 36.73362 | 27.63565 | 35975 ft | 417 kts | 317° |
| 2026-04-29 16:36 | 36.77701 | 27.58751 | 35983 ft | 418 kts | 316° |
| 2026-04-29 16:36 | 36.82039 | 27.53926 | 35983 ft | 418 kts | 316° |
| 2026-04-29 16:37 | 36.86384 | 27.49097 | 35980 ft | 418 kts | 316° |
| 2026-04-29 16:37 | 36.89989 | 27.45080 | 35988 ft | 418 kts | 316° |
| 2026-04-29 16:38 | 36.95060 | 27.39422 | 35999 ft | 418 kts | 316° |
| 2026-04-29 16:38 | 36.99394 | 27.34581 | 35997 ft | 418 kts | 316° |
| 2026-04-29 16:39 | 37.03703 | 27.29766 | 36000 ft | 418 kts | 316° |
| 2026-04-29 16:39 | 37.08037 | 27.24917 | 35999 ft | 418 kts | 316° |
| 2026-04-29 16:40 | 37.12368 | 27.20058 | 36000 ft | 418 kts | 316° |
| 2026-04-29 16:40 | 37.16691 | 27.15189 | 36004 ft | 418 kts | 316° |
| 2026-04-29 16:41 | 37.21018 | 27.10315 | 36010 ft | 418 kts | 316° |
| 2026-04-29 16:41 | 37.25340 | 27.05441 | 36020 ft | 418 kts | 316° |
| 2026-04-29 16:42 | 37.29657 | 27.00563 | 36019 ft | 418 kts | 316° |
| 2026-04-29 16:42 | 37.33972 | 26.95679 | 36023 ft | 417 kts | 316° |
| 2026-04-29 16:43 | 37.38285 | 26.90789 | 36018 ft | 417 kts | 316° |
| 2026-04-29 16:43 | 37.42594 | 26.85895 | 36020 ft | 417 kts | 316° |
| 2026-04-29 16:44 | 37.46901 | 26.81001 | 36018 ft | 417 kts | 316° |
| 2026-04-29 16:44 | 37.51206 | 26.76099 | 36017 ft | 417 kts | 316° |
| 2026-04-29 16:45 | 37.55504 | 26.71187 | 36019 ft | 417 kts | 316° |
| 2026-04-29 16:45 | 37.59804 | 26.66270 | 36020 ft | 417 kts | 316° |
| 2026-04-29 16:46 | 37.64102 | 26.61354 | 36024 ft | 417 kts | 316° |
| 2026-04-29 16:46 | 37.67676 | 26.57263 | 36030 ft | 417 kts | 316° |
| 2026-04-29 16:47 | 37.71970 | 26.52330 | 36033 ft | 417 kts | 316° |
| 2026-04-29 16:47 | 37.76269 | 26.47393 | 36046 ft | 417 kts | 316° |
| 2026-04-29 16:48 | 37.80565 | 26.42457 | 36049 ft | 418 kts | 316° |
| 2026-04-29 16:48 | 37.84858 | 26.37501 | 36058 ft | 418 kts | 316° |
| 2026-04-29 16:49 | 37.89146 | 26.32543 | 36060 ft | 418 kts | 316° |
| 2026-04-29 16:49 | 37.93432 | 26.27584 | 36061 ft | 417 kts | 316° |
| 2026-04-29 16:50 | 37.97716 | 26.22613 | 36060 ft | 417 kts | 316° |
| 2026-04-29 16:50 | 38.01991 | 26.17645 | 36060 ft | 417 kts | 316° |
| 2026-04-29 16:51 | 38.06272 | 26.12671 | 36063 ft | 417 kts | 316° |
| 2026-04-29 16:51 | 38.10543 | 26.07693 | 36063 ft | 417 kts | 316° |
| 2026-04-29 16:52 | 38.14785 | 26.02740 | 36071 ft | 417 kts | 316° |
| 2026-04-29 16:52 | 38.19050 | 25.97761 | 36067 ft | 416 kts | 316° |
| 2026-04-29 16:53 | 38.23309 | 25.92778 | 36062 ft | 416 kts | 316° |
| 2026-04-29 16:53 | 38.28009 | 25.88488 | 36057 ft | 418 kts | 328° |
| 2026-04-29 16:54 | 38.33049 | 25.84776 | 36050 ft | 418 kts | 328° |
| 2026-04-29 16:54 | 38.38084 | 25.81046 | 36057 ft | 418 kts | 328° |
| 2026-04-29 16:55 | 38.43118 | 25.77318 | 36070 ft | 419 kts | 328° |
| 2026-04-29 16:55 | 38.48155 | 25.73588 | 36060 ft | 419 kts | 328° |
| 2026-04-29 16:56 | 38.53189 | 25.69848 | 36075 ft | 419 kts | 328° |
| 2026-04-29 16:56 | 38.58217 | 25.66094 | 36074 ft | 418 kts | 328° |
| 2026-04-29 16:57 | 38.63250 | 25.62339 | 36074 ft | 418 kts | 328° |
| 2026-04-29 16:57 | 38.68275 | 25.58588 | 36090 ft | 418 kts | 327° |
| 2026-04-29 16:58 | 38.73295 | 25.54837 | 36087 ft | 418 kts | 327° |
| 2026-04-29 16:58 | 38.78313 | 25.51076 | 36086 ft | 418 kts | 327° |
| 2026-04-29 16:59 | 38.83330 | 25.47313 | 36081 ft | 417 kts | 327° |
| 2026-04-29 16:59 | 38.88336 | 25.43547 | 36082 ft | 417 kts | 327° |
| 2026-04-29 17:00 | 38.93341 | 25.39773 | 36083 ft | 417 kts | 327° |
| 2026-04-29 17:00 | 38.98336 | 25.36004 | 36090 ft | 416 kts | 327° |
| 2026-04-29 17:01 | 39.03322 | 25.32235 | 36078 ft | 416 kts | 327° |
| 2026-04-29 17:01 | 39.08269 | 25.28492 | 36075 ft | 415 kts | 327° |
| 2026-04-29 17:02 | 39.13250 | 25.24726 | 36074 ft | 415 kts | 327° |
| 2026-04-29 17:02 | 39.17420 | 25.21564 | 36080 ft | 406 kts | 327° |
| 2026-04-29 17:03 | 39.19336 | 25.20099 | 36211 ft | 375 kts | 326° |